Terminal Aerodrome Forecast
Issued by NWS

Home | Current Version | Previous Version | Text Only | Print | Product List | Glossary On
Versions: 1 2 3 4 5 6 7 8 9 10 11 12 13 14 15 16
000
FTUS43 KDLH 250500
TAFBRD
TAF
KBRD 250522Z 2506/2606 06007KT 4SM -RA BR BKN012 OVC035
      TEMPO 2506/2509 3SM -RA BR OVC008
     FM250900 06006KT 3SM -RA BR OVC006
     FM251400 05007KT 2SM -RA BR OVC006
     FM252100 36006KT 4SM -RA BR OVC012=

USA.gov is the U.S. government's official web portal to all federal, state and local government web resources and services.